Time;durP1;ratioP1;P1;durP2;ratioP2;P2;SDS_P1;SDS_P2;PMS_P1;PMS_P2;Temp;Humidity;BMP_temperature;BMP_pressure;BME280_temperature;BME280_humidity;BME280_pressure;Samples;Min_cycle;Max_cycle;Signal;HPM_P1;HPM_P2
2024/01/24 00:01:42;;;;;;;0.10;0.10;;;;;;;;;;5007479;28;20054;-79
2024/01/24 00:04:09;;;;;;;0.10;0.10;;;;;;;;;;5021502;28;20065;-80
2024/01/24 00:06:38;;;;;;;0.10;0.10;;;;;;;;;;5002690;28;20046;-79
2024/01/24 00:09:05;;;;;;;0.52;0.52;;;;;;;;;;5024074;28;20051;-79
2024/01/24 00:11:31;;;;;;;0.10;0.10;;;;;;;;;;4995850;28;20072;-79
2024/01/24 00:13:58;;;;;;;0.10;0.10;;;;;;;;;;4998744;28;20100;-78
2024/01/24 00:16:24;;;;;;;0.10;0.10;;;;;;;;;;5012330;28;20055;-79
2024/01/24 00:18:53;;;;;;;0.10;0.10;;;;;;;;;;4994066;28;20058;-79
2024/01/24 00:21:20;;;;;;;0.10;0.10;;;;;;;;;;4997863;28;20078;-79
2024/01/24 00:23:46;;;;;;;0.20;0.20;;;;;;;;;;4994470;28;20540;-79
2024/01/24 00:26:13;;;;;;;0.20;0.20;;;;;;;;;;5012377;28;20058;-79
2024/01/24 00:28:39;;;;;;;0.10;0.10;;;;;;;;;;5013025;28;20055;-79
2024/01/24 00:31:06;;;;;;;0.45;0.45;;;;;;;;;;5012472;28;20054;-79
2024/01/24 00:33:33;;;;;;;0.10;0.10;;;;;;;;;;5011970;28;20116;-79
2024/01/24 00:35:59;;;;;;;0.50;0.50;;;;;;;;;;4995392;28;20464;-79
2024/01/24 00:38:26;;;;;;;0.10;0.10;;;;;;;;;;4994025;28;20042;-79
2024/01/24 00:40:52;;;;;;;0.20;0.20;;;;;;;;;;4995723;28;20058;-79
2024/01/24 00:43:19;;;;;;;0.10;0.10;;;;;;;;;;5014901;28;20062;-79
2024/01/24 00:45:45;;;;;;;0.30;0.30;;;;;;;;;;5000237;28;20062;-79
2024/01/24 00:48:11;;;;;;;0.10;0.10;;;;;;;;;;4993039;28;20979;-79
2024/01/24 00:50:38;;;;;;;0.10;0.10;;;;;;;;;;4994840;28;20065;-79
2024/01/24 00:53:04;;;;;;;0.10;0.10;;;;;;;;;;5012216;28;20047;-79
2024/01/24 00:55:31;;;;;;;0.10;0.10;;;;;;;;;;5011325;28;20424;-79
2024/01/24 00:57:58;;;;;;;0.10;0.10;;;;;;;;;;5012381;28;20054;-79
2024/01/24 01:00:24;;;;;;;0.20;0.20;;;;;;;;;;4997256;28;20061;-80
2024/01/24 01:02:51;;;;;;;0.10;0.10;;;;;;;;;;4994342;28;20057;-79
2024/01/24 01:05:18;;;;;;;0.10;0.10;;;;;;;;;;4994626;28;20133;-79
2024/01/24 01:07:44;;;;;;;0.10;0.10;;;;;;;;;;5010234;28;20054;-80
2024/01/24 01:10:11;;;;;;;0.10;0.10;;;;;;;;;;5009448;28;20097;-80
2024/01/24 01:12:37;;;;;;;0.10;0.10;;;;;;;;;;5006530;28;20062;-80
2024/01/24 01:15:04;;;;;;;0.10;0.10;;;;;;;;;;5010823;28;20054;-80
2024/01/24 01:17:31;;;;;;;0.10;0.10;;;;;;;;;;5009979;28;20440;-80
2024/01/24 01:19:58;;;;;;;0.10;0.10;;;;;;;;;;4994397;28;20058;-80
2024/01/24 01:22:24;;;;;;;0.28;0.28;;;;;;;;;;4996916;28;20899;-80
2024/01/24 01:24:51;;;;;;;0.10;0.10;;;;;;;;;;5012594;28;20112;-80
2024/01/24 01:27:17;;;;;;;0.10;0.10;;;;;;;;;;4992335;28;20582;-81
2024/01/24 01:29:44;;;;;;;0.10;0.10;;;;;;;;;;4999842;28;20082;-81
2024/01/24 01:32:10;;;;;;;0.10;0.10;;;;;;;;;;4992711;28;20064;-80
2024/01/24 01:34:37;;;;;;;0.10;0.10;;;;;;;;;;4990700;28;21194;-81
2024/01/24 01:37:08;;;;;;;0.10;0.10;;;;;;;;;;5001410;28;20109;-80
2024/01/24 01:39:35;;;;;;;0.10;0.10;;;;;;;;;;4992375;28;20061;-80
2024/01/24 01:42:02;;;;;;;0.20;0.20;;;;;;;;;;4993151;28;20137;-81
2024/01/24 01:44:29;;;;;;;0.10;0.10;;;;;;;;;;4992849;28;20480;-81
2024/01/24 01:46:55;;;;;;;0.10;0.10;;;;;;;;;;4995670;28;20512;-81
2024/01/24 01:49:22;;;;;;;0.10;0.10;;;;;;;;;;4992347;28;20057;-81
2024/01/24 01:51:50;;;;;;;0.10;0.10;;;;;;;;;;5010408;28;20058;-81
2024/01/24 01:54:17;;;;;;;0.10;0.10;;;;;;;;;;4992783;28;20499;-81
2024/01/24 01:56:43;;;;;;;0.10;0.10;;;;;;;;;;4994409;28;20055;-81
2024/01/24 01:59:10;;;;;;;0.10;0.10;;;;;;;;;;5009146;28;20058;-81
2024/01/24 02:01:37;;;;;;;0.10;0.10;;;;;;;;;;5011513;28;20058;-80
2024/01/24 02:04:04;;;;;;;0.10;0.10;;;;;;;;;;5015457;28;20535;-80
2024/01/24 02:06:30;;;;;;;0.10;0.10;;;;;;;;;;5016431;28;20050;-81
2024/01/24 02:09:00;;;;;;;0.15;0.15;;;;;;;;;;4996089;28;20069;-80
2024/01/24 02:11:26;;;;;;;0.10;0.10;;;;;;;;;;4997875;28;20082;-81
2024/01/24 02:14:00;;;;;;;0.10;0.10;;;;;;;;;;5001538;28;20138;-81
2024/01/24 02:16:26;;;;;;;0.10;0.10;;;;;;;;;;5015110;28;21508;-80
2024/01/24 02:18:53;;;;;;;0.10;0.10;;;;;;;;;;4998227;28;20062;-81
2024/01/24 02:21:19;;;;;;;0.10;0.10;;;;;;;;;;4998869;28;20132;-81
2024/01/24 02:23:47;;;;;;;0.10;0.10;;;;;;;;;;4997198;28;20054;-82
2024/01/24 02:26:13;;;;;;;0.10;0.10;;;;;;;;;;4995887;28;20061;-81
2024/01/24 02:28:39;;;;;;;0.10;0.10;;;;;;;;;;4998887;28;20046;-80
2024/01/24 02:31:06;;;;;;;0.10;0.10;;;;;;;;;;5007381;28;20055;-80
2024/01/24 02:33:32;;;;;;;0.10;0.10;;;;;;;;;;4995747;28;20709;-85
2024/01/24 02:35:59;;;;;;;0.10;0.10;;;;;;;;;;5000140;28;20085;-80
2024/01/24 02:38:26;;;;;;;0.10;0.10;;;;;;;;;;5002051;28;20065;-80
2024/01/24 02:40:52;;;;;;;0.10;0.10;;;;;;;;;;5002186;28;20141;-80
2024/01/24 02:43:18;;;;;;;0.10;0.10;;;;;;;;;;4998171;28;20067;-80
2024/01/24 02:45:45;;;;;;;0.10;0.10;;;;;;;;;;4999969;28;20922;-80
2024/01/24 02:48:11;;;;;;;0.10;0.10;;;;;;;;;;4999319;28;20141;-81
2024/01/24 02:50:38;;;;;;;0.10;0.10;;;;;;;;;;4999322;28;20124;-81
2024/01/24 02:53:04;;;;;;;0.10;0.10;;;;;;;;;;5004677;28;20155;-81
2024/01/24 02:55:31;;;;;;;0.30;0.30;;;;;;;;;;5006664;28;20047;-81
2024/01/24 02:58:00;;;;;;;0.20;0.20;;;;;;;;;;5010438;28;20061;-81
2024/01/24 03:00:28;;;;;;;0.10;0.10;;;;;;;;;;4997632;28;20034;-81
2024/01/24 03:02:55;;;;;;;0.10;0.10;;;;;;;;;;5009340;28;20042;-81
2024/01/24 03:05:21;;;;;;;0.10;0.10;;;;;;;;;;5016184;28;20501;-81
2024/01/24 03:07:48;;;;;;;0.10;0.10;;;;;;;;;;5005093;28;20051;-81
2024/01/24 03:10:14;;;;;;;0.30;0.30;;;;;;;;;;5013792;28;20042;-81
2024/01/24 03:12:40;;;;;;;0.10;0.10;;;;;;;;;;5009531;28;20516;-81
2024/01/24 03:15:07;;;;;;;0.10;0.10;;;;;;;;;;5013834;28;20061;-81
2024/01/24 03:17:34;;;;;;;0.10;0.10;;;;;;;;;;4997455;28;20093;-81
2024/01/24 03:20:00;;;;;;;0.10;0.10;;;;;;;;;;5010429;28;20038;-81
2024/01/24 03:22:36;;;;;;;0.10;0.10;;;;;;;;;;4998020;28;20058;-81
2024/01/24 03:25:06;;;;;;;0.10;0.10;;;;;;;;;;5003715;28;20058;-81
2024/01/24 03:27:32;;;;;;;0.10;0.10;;;;;;;;;;4998383;28;20065;-81
2024/01/24 03:29:59;;;;;;;0.10;0.10;;;;;;;;;;5015077;28;20058;-81
2024/01/24 03:32:25;;;;;;;0.10;0.10;;;;;;;;;;5000385;28;20508;-80
2024/01/24 03:34:53;;;;;;;0.30;0.30;;;;;;;;;;4996192;28;20169;-81
2024/01/24 03:37:19;;;;;;;0.10;0.10;;;;;;;;;;4998893;28;20531;-81
2024/01/24 03:39:46;;;;;;;0.10;0.10;;;;;;;;;;4998047;28;20035;-81
2024/01/24 03:42:12;;;;;;;0.10;0.10;;;;;;;;;;5017111;28;20110;-81
2024/01/24 03:44:39;;;;;;;0.10;0.10;;;;;;;;;;4996828;28;20046;-81
2024/01/24 03:47:05;;;;;;;0.10;0.10;;;;;;;;;;4999532;28;20136;-81
2024/01/24 03:49:32;;;;;;;0.10;0.10;;;;;;;;;;4998764;28;20432;-81
2024/01/24 03:51:58;;;;;;;0.10;0.10;;;;;;;;;;4997603;28;20898;-81
2024/01/24 03:54:25;;;;;;;0.10;0.10;;;;;;;;;;5009535;28;20546;-81
2024/01/24 03:56:52;;;;;;;0.10;0.10;;;;;;;;;;5019901;28;20058;-81
2024/01/24 03:59:18;;;;;;;0.10;0.10;;;;;;;;;;5018149;28;20039;-81
2024/01/24 04:01:44;;;;;;;0.30;0.30;;;;;;;;;;5018040;28;20523;-81
2024/01/24 04:04:11;;;;;;;0.10;0.10;;;;;;;;;;4998807;28;20050;-81
2024/01/24 04:06:37;;;;;;;0.10;0.10;;;;;;;;;;5000124;28;20041;-81
2024/01/24 04:09:04;;;;;;;0.68;0.68;;;;;;;;;;5018660;28;20050;-80
2024/01/24 04:11:30;;;;;;;0.25;0.25;;;;;;;;;;5002992;28;20046;-80
2024/01/24 04:14:02;;;;;;;0.40;0.40;;;;;;;;;;5000891;28;20106;-81
2024/01/24 04:16:28;;;;;;;0.10;0.10;;;;;;;;;;5000644;28;20117;-80
2024/01/24 04:18:55;;;;;;;0.10;0.10;;;;;;;;;;5017934;28;20062;-80
2024/01/24 04:21:24;;;;;;;0.10;0.10;;;;;;;;;;5001884;28;20065;-80
2024/01/24 04:23:50;;;;;;;0.13;0.13;;;;;;;;;;5014890;28;20093;-80
2024/01/24 04:26:19;;;;;;;0.10;0.10;;;;;;;;;;5016838;28;20086;-80
2024/01/24 04:28:46;;;;;;;0.10;0.10;;;;;;;;;;4999554;28;20039;-80
2024/01/24 04:31:12;;;;;;;0.10;0.10;;;;;;;;;;5017900;28;20080;-81
2024/01/24 04:33:39;;;;;;;0.20;0.20;;;;;;;;;;4999717;28;20030;-80
2024/01/24 04:36:06;;;;;;;0.10;0.10;;;;;;;;;;5016181;28;20066;-80
2024/01/24 04:38:32;;;;;;;0.10;0.10;;;;;;;;;;5014993;28;20105;-80
2024/01/24 04:40:58;;;;;;;0.20;0.20;;;;;;;;;;4995965;28;20405;-80
2024/01/24 04:43:25;;;;;;;0.63;0.63;;;;;;;;;;4998333;28;20441;-80
2024/01/24 04:45:51;;;;;;;2.05;0.32;;;;;;;;;;5016743;28;20061;-80
2024/01/24 04:48:18;;;;;;;0.10;0.10;;;;;;;;;;4999603;28;20112;-80
2024/01/24 04:50:44;;;;;;;0.10;0.10;;;;;;;;;;4998799;28;20104;-80
2024/01/24 04:53:11;;;;;;;10.02;2.28;;;;;;;;;;5000859;28;20050;-80
2024/01/24 04:55:37;;;;;;;1.85;0.75;;;;;;;;;;4996349;28;20042;-80
2024/01/24 04:58:04;;;;;;;0.20;0.20;;;;;;;;;;5017673;28;20141;-80
2024/01/24 05:00:31;;;;;;;0.10;0.10;;;;;;;;;;4996750;28;20047;-80
2024/01/24 05:03:00;;;;;;;0.10;0.10;;;;;;;;;;4996098;28;20054;-80
2024/01/24 05:05:27;;;;;;;0.10;0.10;;;;;;;;;;5017847;28;20038;-80
2024/01/24 05:07:53;;;;;;;0.10;0.10;;;;;;;;;;5016178;28;20046;-80
2024/01/24 05:10:20;;;;;;;0.10;0.10;;;;;;;;;;4996486;28;20055;-79
2024/01/24 05:12:46;;;;;;;0.10;0.10;;;;;;;;;;5017463;28;20085;-80
2024/01/24 05:15:13;;;;;;;0.30;0.30;;;;;;;;;;4999490;28;20105;-81
2024/01/24 05:17:39;;;;;;;0.10;0.10;;;;;;;;;;4999479;28;20058;-80
2024/01/24 05:20:07;;;;;;;0.10;0.10;;;;;;;;;;4992094;28;20055;-80
2024/01/24 05:22:34;;;;;;;0.10;0.10;;;;;;;;;;4993727;28;20081;-80
2024/01/24 05:25:00;;;;;;;0.13;0.13;;;;;;;;;;5010831;28;20050;-80
2024/01/24 05:27:26;;;;;;;1.17;1.05;;;;;;;;;;4995421;28;20062;-80
2024/01/24 05:29:53;;;;;;;0.10;0.10;;;;;;;;;;5007771;28;20578;-81
2024/01/24 05:32:20;;;;;;;0.10;0.10;;;;;;;;;;4994380;28;20054;-80
2024/01/24 05:34:46;;;;;;;0.30;0.30;;;;;;;;;;4995573;28;20062;-80
2024/01/24 05:37:13;;;;;;;0.15;0.15;;;;;;;;;;4991114;28;20058;-80
2024/01/24 05:39:41;;;;;;;0.10;0.10;;;;;;;;;;4992133;28;20050;-80
2024/01/24 05:42:16;;;;;;;0.17;0.17;;;;;;;;;;4992955;28;20104;-81
2024/01/24 05:44:48;;;;;;;0.10;0.10;;;;;;;;;;5008207;28;20058;-80
2024/01/24 05:47:15;;;;;;;0.10;0.10;;;;;;;;;;4999114;28;20110;-80
2024/01/24 05:49:41;;;;;;;0.10;0.10;;;;;;;;;;5008871;28;20501;-80
2024/01/24 05:52:08;;;;;;;0.30;0.30;;;;;;;;;;4992740;28;20061;-80
2024/01/24 05:54:34;;;;;;;0.10;0.10;;;;;;;;;;4993614;28;20513;-80
2024/01/24 05:57:01;;;;;;;0.10;0.10;;;;;;;;;;5010226;28;20587;-80
2024/01/24 05:59:28;;;;;;;0.10;0.10;;;;;;;;;;5009555;28;20866;-80
2024/01/24 06:01:54;;;;;;;0.10;0.10;;;;;;;;;;5011425;28;20538;-80
2024/01/24 06:04:20;;;;;;;0.35;0.25;;;;;;;;;;5092063;22;20084;-77
2024/01/24 06:06:47;;;;;;;0.10;0.10;;;;;;;;;;5045706;28;20128;-77
2024/01/24 06:09:14;;;;;;;0.10;0.10;;;;;;;;;;5044694;28;20062;-77
2024/01/24 06:11:45;;;;;;;;;;;;;;;;;;5050332;28;20057;-78
2024/01/24 06:14:16;;;;;;;0.65;0.63;;;;;;;;;;5045975;28;45377;-78
2024/01/24 06:16:43;;;;;;;0.10;0.10;;;;;;;;;;5046743;28;20060;-77
2024/01/24 06:19:09;;;;;;;0.10;0.10;;;;;;;;;;5046174;28;20057;-77
2024/01/24 06:21:36;;;;;;;0.10;0.10;;;;;;;;;;5046995;28;20108;-77
2024/01/24 06:24:02;;;;;;;0.10;0.10;;;;;;;;;;5046973;28;20060;-78
2024/01/24 06:26:29;;;;;;;0.47;0.47;;;;;;;;;;5040383;28;20530;-77
2024/01/24 06:28:56;;;;;;;0.10;0.10;;;;;;;;;;5045476;28;20140;-77
2024/01/24 06:31:23;;;;;;;0.10;0.10;;;;;;;;;;5046299;28;20053;-77
2024/01/24 06:33:50;;;;;;;0.10;0.10;;;;;;;;;;5045835;28;20065;-78
2024/01/24 06:36:17;;;;;;;0.10;0.10;;;;;;;;;;5046921;28;20143;-77
2024/01/24 06:38:43;;;;;;;0.10;0.10;;;;;;;;;;5046862;28;20053;-77
2024/01/24 06:41:12;;;;;;;0.20;0.20;;;;;;;;;;5043856;28;20282;-77
2024/01/24 06:43:41;;;;;;;0.20;0.20;;;;;;;;;;5046711;28;20060;-78
2024/01/24 06:46:08;;;;;;;0.05;0.05;;;;;;;;;;5046148;28;20053;-78
2024/01/24 06:48:35;;;;;;;0.10;0.10;;;;;;;;;;5049609;28;20515;-77
2024/01/24 06:51:01;;;;;;;0.10;0.10;;;;;;;;;;5037702;28;20619;-78
2024/01/24 06:53:28;;;;;;;9.95;1.75;;;;;;;;;;5048955;28;20057;-77
2024/01/24 06:55:56;;;;;;;0.10;0.10;;;;;;;;;;5049997;28;20131;-77
2024/01/24 06:58:22;;;;;;;0.10;0.10;;;;;;;;;;5032960;28;20145;-77
2024/01/24 07:00:48;;;;;;;0.10;0.10;;;;;;;;;;5048536;28;20092;-77
2024/01/24 07:03:15;;;;;;;1.35;1.00;;;;;;;;;;5027276;28;20579;-77
2024/01/24 07:05:46;;;;;;;22.90;1.23;;;;;;;;;;5048888;28;20104;-78
2024/01/24 07:08:13;;;;;;;0.55;0.55;;;;;;;;;;5048579;28;20427;-77
2024/01/24 07:10:39;;;;;;;0.10;0.10;;;;;;;;;;5049965;28;20165;-78
2024/01/24 07:13:06;;;;;;;7.03;2.92;;;;;;;;;;5047829;28;20533;-77
2024/01/24 07:15:32;;;;;;;0.10;0.10;;;;;;;;;;5049678;28;20057;-77
2024/01/24 07:17:59;;;;;;;0.00;0.00;;;;;;;;;;5031336;28;20061;-77
2024/01/24 07:20:25;;;;;;;0.10;0.10;;;;;;;;;;5044688;28;20057;-76
2024/01/24 07:22:52;;;;;;;8.35;1.30;;;;;;;;;;5042778;28;20057;-78
2024/01/24 07:25:19;;;;;;;2.60;1.40;;;;;;;;;;5045049;28;20057;-77
2024/01/24 07:27:49;;;;;;;0.52;0.52;;;;;;;;;;5043028;28;20061;-78
2024/01/24 07:30:15;;;;;;;0.10;0.10;;;;;;;;;;5048156;28;20053;-78
2024/01/24 07:32:42;;;;;;;0.08;0.08;;;;;;;;;;5049727;28;20052;-78
2024/01/24 07:35:09;;;;;;;0.10;0.10;;;;;;;;;;5028792;28;20144;-77
2024/01/24 07:37:36;;;;;;;0.10;0.10;;;;;;;;;;5029829;28;20061;-77
2024/01/24 07:40:02;;;;;;;0.10;0.10;;;;;;;;;;5040719;28;20958;-77
2024/01/24 07:42:29;;;;;;;0.10;0.10;;;;;;;;;;5044780;28;20142;-77
2024/01/24 07:44:56;;;;;;;2.05;1.95;;;;;;;;;;5029038;28;20144;-77
2024/01/24 07:47:23;;;;;;;0.40;0.40;;;;;;;;;;5029883;28;20562;-77
2024/01/24 07:49:50;;;;;;;0.10;0.10;;;;;;;;;;5045798;28;20061;-77
2024/01/24 07:52:17;;;;;;;0.05;0.05;;;;;;;;;;5046834;28;20050;-77
2024/01/24 07:55:02;;;;;;;0.30;0.30;;;;;;;;;;5046984;28;20107;-79
2024/01/24 07:57:29;;;;;;;0.10;0.10;;;;;;;;;;5045538;28;20610;-78
2024/01/24 07:59:56;;;;;;;0.10;0.10;;;;;;;;;;5020034;28;20068;-77
2024/01/24 08:02:23;;;;;;;0.10;0.10;;;;;;;;;;5045400;28;20115;-77
2024/01/24 08:04:49;;;;;;;0.10;0.10;;;;;;;;;;5045108;28;20061;-78
2024/01/24 08:07:16;;;;;;;0.60;0.60;;;;;;;;;;5046881;28;20060;-78
2024/01/24 08:09:44;;;;;;;0.08;0.08;;;;;;;;;;5046547;28;20077;-78
2024/01/24 08:12:11;;;;;;;0.10;0.10;;;;;;;;;;5043891;28;20081;-78
2024/01/24 08:14:38;;;;;;;0.20;0.15;;;;;;;;;;5044417;28;20088;-78
2024/01/24 08:17:06;;;;;;;0.10;0.10;;;;;;;;;;5045621;28;20057;-78
2024/01/24 08:19:33;;;;;;;0.20;0.20;;;;;;;;;;5046190;28;20057;-77
2024/01/24 08:22:00;;;;;;;0.10;0.10;;;;;;;;;;5047336;28;20057;-78
2024/01/24 08:24:26;;;;;;;0.50;0.50;;;;;;;;;;5043319;28;20057;-78
2024/01/24 08:26:53;;;;;;;0.10;0.10;;;;;;;;;;5046554;28;20184;-77
2024/01/24 08:29:20;;;;;;;2.33;0.85;;;;;;;;;;5026754;28;20053;-78
2024/01/24 08:31:57;;;;;;;0.10;0.10;;;;;;;;;;5043670;28;20567;-78
2024/01/24 08:34:24;;;;;;;0.30;0.30;;;;;;;;;;5046598;28;20053;-78
2024/01/24 08:36:51;;;;;;;0.10;0.10;;;;;;;;;;5045873;28;20147;-78
2024/01/24 08:39:17;;;;;;;0.00;0.00;;;;;;;;;;5050384;28;20103;-77
2024/01/24 08:41:44;;;;;;;0.10;0.10;;;;;;;;;;5046840;28;20053;-78
2024/01/24 08:44:10;;;;;;;0.10;0.10;;;;;;;;;;5046551;28;20054;-78
2024/01/24 08:46:36;;;;;;;0.10;0.10;;;;;;;;;;5043382;28;20105;-78
2024/01/24 08:49:05;;;;;;;0.10;0.10;;;;;;;;;;5043646;28;20057;-78
2024/01/24 08:51:32;;;;;;;0.10;0.10;;;;;;;;;;5027036;28;20520;-78
2024/01/24 08:53:59;;;;;;;0.10;0.10;;;;;;;;;;5028248;28;20053;-78
2024/01/24 08:56:26;;;;;;;0.73;0.73;;;;;;;;;;5028208;28;20053;-78
2024/01/24 08:58:52;;;;;;;0.03;0.03;;;;;;;;;;5045352;28;20053;-78
2024/01/24 09:01:19;;;;;;;0.10;0.10;;;;;;;;;;5043328;28;20111;-78
2024/01/24 09:03:49;;;;;;;0.13;0.13;;;;;;;;;;5021768;28;20054;-78
2024/01/24 09:06:17;;;;;;;0.10;0.10;;;;;;;;;;5047255;28;20060;-77
2024/01/24 09:08:44;;;;;;;1.85;1.75;;;;;;;;;;5028132;28;20050;-78
2024/01/24 09:11:10;;;;;;;0.10;0.10;;;;;;;;;;5041931;28;20149;-78
2024/01/24 09:13:37;;;;;;;0.30;0.30;;;;;;;;;;5050818;28;20053;-78
2024/01/24 09:16:03;;;;;;;15.25;2.60;;;;;;;;;;5042118;28;20058;-78
2024/01/24 09:18:32;;;;;;;0.10;0.10;;;;;;;;;;5045424;28;20080;-78
2024/01/24 09:21:01;;;;;;;0.10;0.10;;;;;;;;;;5045807;28;20049;-78
2024/01/24 09:23:27;;;;;;;0.10;0.10;;;;;;;;;;5046344;28;20054;-77
2024/01/24 09:25:54;;;;;;;0.10;0.10;;;;;;;;;;5041740;28;20049;-78
2024/01/24 09:28:20;;;;;;;0.10;0.10;;;;;;;;;;5043384;28;20053;-78
2024/01/24 09:30:47;;;;;;;0.10;0.10;;;;;;;;;;5042678;28;20104;-78
2024/01/24 09:33:13;;;;;;;0.10;0.10;;;;;;;;;;5040196;28;20088;-78
2024/01/24 09:35:40;;;;;;;0.10;0.10;;;;;;;;;;5043475;28;20057;-78
2024/01/24 09:38:07;;;;;;;5.47;4.45;;;;;;;;;;5044734;28;20123;-78
2024/01/24 09:40:33;;;;;;;0.63;0.40;;;;;;;;;;5043032;28;20135;-78
2024/01/24 09:43:01;;;;;;;1.55;1.45;;;;;;;;;;5040980;28;20512;-77
2024/01/24 09:45:28;;;;;;;0.10;0.10;;;;;;;;;;5046531;28;20084;-77
2024/01/24 09:47:56;;;;;;;1.85;1.27;;;;;;;;;;5044915;28;20268;-78
2024/01/24 09:50:23;;;;;;;0.10;0.10;;;;;;;;;;5036143;28;20049;-77
2024/01/24 09:52:53;;;;;;;0.10;0.10;;;;;;;;;;5041364;28;20128;-78
2024/01/24 09:55:21;;;;;;;0.10;0.10;;;;;;;;;;5042290;28;20534;-77
2024/01/24 09:57:48;;;;;;;0.10;0.10;;;;;;;;;;5041388;28;20054;-77
2024/01/24 10:00:15;;;;;;;0.57;0.57;;;;;;;;;;5038837;28;20095;-77
2024/01/24 10:02:48;;;;;;;0.10;0.10;;;;;;;;;;5027139;28;20515;-78
2024/01/24 10:05:18;;;;;;;0.20;0.20;;;;;;;;;;5040496;28;20045;-78
2024/01/24 10:07:45;;;;;;;0.90;0.80;;;;;;;;;;5044856;28;20057;-78
2024/01/24 10:10:12;;;;;;;0.10;0.10;;;;;;;;;;5045424;28;20636;-77
2024/01/24 10:12:41;;;;;;;1.23;0.22;;;;;;;;;;5045388;28;20057;-78
2024/01/24 10:15:08;;;;;;;2.40;1.00;;;;;;;;;;5043306;28;20057;-78
2024/01/24 10:17:35;;;;;;;0.10;0.10;;;;;;;;;;5045467;28;20512;-78
2024/01/24 10:20:06;;;;;;;1.05;1.05;;;;;;;;;;5045277;28;20475;-77
2024/01/24 10:22:33;;;;;;;0.10;0.10;;;;;;;;;;5047144;28;20517;-77
2024/01/24 10:24:59;;;;;;;0.20;0.20;;;;;;;;;;5047572;28;20068;-78
2024/01/24 10:27:26;;;;;;;1.85;0.73;;;;;;;;;;5048925;28;20468;-78
2024/01/24 10:29:55;;;;;;;2.28;2.13;;;;;;;;;;5046647;28;20523;-78
2024/01/24 10:32:22;;;;;;;0.52;0.52;;;;;;;;;;5051586;28;20045;-78
2024/01/24 10:34:49;;;;;;;0.10;0.10;;;;;;;;;;5052441;28;20065;-78
2024/01/24 10:37:18;;;;;;;0.10;0.10;;;;;;;;;;5052690;28;20049;-78
2024/01/24 10:39:47;;;;;;;0.70;0.70;;;;;;;;;;5033551;28;20057;-78
2024/01/24 10:42:17;;;;;;;0.13;0.13;;;;;;;;;;5034745;28;20053;-78
2024/01/24 10:44:44;;;;;;;0.10;0.10;;;;;;;;;;5051090;28;20842;-78
2024/01/24 10:47:11;;;;;;;0.10;0.10;;;;;;;;;;5051678;28;20053;-78
2024/01/24 10:49:39;;;;;;;0.10;0.10;;;;;;;;;;5052592;28;20056;-78
2024/01/24 10:52:07;;;;;;;0.10;0.10;;;;;;;;;;5051318;28;20947;-78
2024/01/24 10:54:34;;;;;;;0.10;0.10;;;;;;;;;;5050207;28;20065;-78
2024/01/24 10:57:02;;;;;;;0.10;0.10;;;;;;;;;;5050909;28;20053;-78
2024/01/24 10:59:31;;;;;;;0.10;0.10;;;;;;;;;;5047214;28;20045;-78
2024/01/24 11:01:57;;;;;;;0.85;0.85;;;;;;;;;;5049136;28;20049;-78
2024/01/24 11:04:25;;;;;;;1.65;0.55;;;;;;;;;;5031797;28;20099;-78
2024/01/24 11:06:58;;;;;;;0.10;0.10;;;;;;;;;;5050114;28;20554;-78
2024/01/24 11:09:41;;;;;;;0.32;0.25;;;;;;;;;;5045217;28;20062;-78
2024/01/24 11:12:08;;;;;;;1.45;0.77;;;;;;;;;;5047497;28;20064;-78
2024/01/24 11:14:42;;;;;;;0.10;0.10;;;;;;;;;;5050693;28;20112;-80
2024/01/24 11:17:08;;;;;;;0.10;0.10;;;;;;;;;;5050489;28;20127;-79
2024/01/24 11:19:35;;;;;;;0.10;0.10;;;;;;;;;;5052894;28;20057;-81
2024/01/24 11:22:11;;;;;;;0.10;0.10;;;;;;;;;;5052099;28;20058;-80
2024/01/24 11:24:50;;;;;;;0.10;0.10;;;;;;;;;;5050107;28;20088;-80
2024/01/24 11:27:44;;;;;;;0.28;0.20;;;;;;;;;;5051317;28;20058;-80
2024/01/24 11:30:16;;;;;;;0.10;0.10;;;;;;;;;;5050545;28;20057;-80
2024/01/24 11:32:44;;;;;;;1.30;1.20;;;;;;;;;;5049316;28;20586;-81
2024/01/24 11:35:24;;;;;;;0.10;0.10;;;;;;;;;;5047209;28;20052;-80
2024/01/24 11:37:53;;;;;;;0.25;0.25;;;;;;;;;;5044594;28;20136;-80
2024/01/24 11:40:22;;;;;;;3.83;3.00;;;;;;;;;;5029949;28;20049;-80
2024/01/24 11:42:54;;;;;;;0.20;0.20;;;;;;;;;;5051645;28;20290;-80
2024/01/24 11:45:25;;;;;;;0.10;0.10;;;;;;;;;;5049763;28;20519;-81
2024/01/24 11:47:52;;;;;;;0.10;0.10;;;;;;;;;;5051987;28;20061;-80
2024/01/24 11:50:19;;;;;;;0.10;0.10;;;;;;;;;;5050714;28;20050;-81
2024/01/24 11:52:48;;;;;;;0.10;0.10;;;;;;;;;;5050162;28;20108;-81
2024/01/24 11:55:15;;;;;;;4.03;1.10;;;;;;;;;;5050015;28;20056;-80
2024/01/24 11:57:41;;;;;;;0.65;0.65;;;;;;;;;;5048373;28;20607;-81
2024/01/24 12:00:09;;;;;;;0.10;0.10;;;;;;;;;;5034757;28;20704;-81
2024/01/24 12:02:36;;;;;;;0.10;0.10;;;;;;;;;;5046879;28;20061;-81
2024/01/24 12:05:03;;;;;;;1.30;1.20;;;;;;;;;;5049679;28;20103;-80
2024/01/24 12:07:30;;;;;;;0.50;0.25;;;;;;;;;;5047333;28;20043;-80
2024/01/24 12:09:56;;;;;;;0.10;0.10;;;;;;;;;;5047045;28;20057;-80
2024/01/24 12:12:24;;;;;;;0.10;0.10;;;;;;;;;;5047837;28;20050;-80
2024/01/24 12:14:50;;;;;;;0.10;0.10;;;;;;;;;;5049136;28;20057;-80
2024/01/24 12:17:17;;;;;;;0.10;0.10;;;;;;;;;;5029674;28;20160;-81
2024/01/24 12:19:44;;;;;;;0.10;0.10;;;;;;;;;;5043644;28;20045;-80
2024/01/24 12:22:12;;;;;;;0.63;0.63;;;;;;;;;;5046131;28;20059;-81
2024/01/24 12:24:39;;;;;;;0.25;0.17;;;;;;;;;;5045922;28;20054;-80
2024/01/24 12:27:07;;;;;;;0.10;0.10;;;;;;;;;;5044934;28;20054;-80
2024/01/24 12:29:34;;;;;;;1.88;1.10;;;;;;;;;;5048799;28;20061;-81
2024/01/24 12:32:03;;;;;;;0.10;0.10;;;;;;;;;;5048068;28;20094;-80
2024/01/24 12:34:29;;;;;;;0.10;0.10;;;;;;;;;;5048780;28;20049;-80
2024/01/24 12:36:57;;;;;;;0.10;0.10;;;;;;;;;;5051315;28;21135;-80
2024/01/24 12:39:31;;;;;;;0.10;0.10;;;;;;;;;;5048888;28;20056;-80
2024/01/24 12:41:59;;;;;;;0.10;0.10;;;;;;;;;;5050672;28;20516;-81
2024/01/24 12:44:25;;;;;;;0.10;0.10;;;;;;;;;;5050775;28;20088;-80
2024/01/24 12:46:56;;;;;;;0.10;0.10;;;;;;;;;;5139602;22;20055;-81
2024/01/24 12:49:24;;;;;;;0.10;0.10;;;;;;;;;;5089813;28;20579;-80
2024/01/24 12:51:51;;;;;;;0.10;0.10;;;;;;;;;;5082954;28;20091;-81
2024/01/24 12:54:18;;;;;;;0.10;0.10;;;;;;;;;;5082213;28;20052;-80
2024/01/24 12:56:46;;;;;;;0.10;0.10;;;;;;;;;;5087878;28;20522;-81
2024/01/24 12:59:12;;;;;;;0.10;0.10;;;;;;;;;;5088819;28;20681;-81
2024/01/24 13:01:41;;;;;;;21.63;1.27;;;;;;;;;;5084440;28;20087;-81
2024/01/24 13:04:08;;;;;;;0.10;0.10;;;;;;;;;;5082266;28;20542;-82
2024/01/24 13:06:39;;;;;;;0.10;0.10;;;;;;;;;;5082966;28;20075;-81
2024/01/24 13:09:08;;;;;;;0.20;0.20;;;;;;;;;;5083785;28;20083;-88
2024/01/24 13:11:35;;;;;;;0.10;0.10;;;;;;;;;;5087211;28;20037;-81
2024/01/24 13:14:01;;;;;;;0.30;0.30;;;;;;;;;;5077529;28;20084;-81
2024/01/24 13:16:28;;;;;;;0.10;0.10;;;;;;;;;;5080324;28;20142;-80
2024/01/24 13:18:55;;;;;;;0.10;0.10;;;;;;;;;;5088936;28;20037;-81
2024/01/24 13:21:22;;;;;;;0.10;0.10;;;;;;;;;;5075933;28;20052;-81
2024/01/24 13:23:48;;;;;;;2.50;0.25;;;;;;;;;;5086568;28;21209;-78
2024/01/24 13:26:15;;;;;;;0.10;0.10;;;;;;;;;;5093694;28;20052;-79
2024/01/24 13:28:42;;;;;;;0.50;0.50;;;;;;;;;;5087386;28;20052;-80
2024/01/24 13:31:09;;;;;;;0.10;0.10;;;;;;;;;;5087998;28;20053;-79
2024/01/24 13:33:35;;;;;;;0.10;0.10;;;;;;;;;;5095229;28;20061;-80
2024/01/24 13:36:07;;;;;;;0.10;0.10;;;;;;;;;;5083511;28;20044;-78
2024/01/24 13:38:33;;;;;;;0.10;0.10;;;;;;;;;;5096435;28;20979;-79
2024/01/24 13:41:00;;;;;;;0.30;0.30;;;;;;;;;;5091091;28;20509;-79
2024/01/24 13:43:27;;;;;;;0.10;0.10;;;;;;;;;;5076805;28;20041;-80
2024/01/24 13:45:54;;;;;;;1.23;1.17;;;;;;;;;;5094461;28;20067;-80
2024/01/24 13:48:21;;;;;;;0.10;0.10;;;;;;;;;;5086402;28;20040;-80
2024/01/24 13:50:47;;;;;;;0.10;0.10;;;;;;;;;;5077629;28;20104;-80
2024/01/24 13:53:14;;;;;;;0.10;0.10;;;;;;;;;;5100419;28;20088;-80
2024/01/24 13:55:41;;;;;;;0.50;0.50;;;;;;;;;;5095388;28;20108;-81
2024/01/24 13:58:10;;;;;;;0.10;0.10;;;;;;;;;;5090924;28;20092;-80
2024/01/24 14:00:38;;;;;;;8.57;0.85;;;;;;;;;;5082663;28;20053;-80
2024/01/24 14:03:05;;;;;;;0.10;0.10;;;;;;;;;;5084826;28;20045;-80
2024/01/24 14:05:32;;;;;;;0.10;0.10;;;;;;;;;;5079175;28;20055;-80
2024/01/24 14:07:58;;;;;;;0.10;0.10;;;;;;;;;;5105074;28;20114;-80
2024/01/24 14:10:28;;;;;;;0.10;0.10;;;;;;;;;;5085460;28;20140;-80
2024/01/24 14:12:55;;;;;;;0.20;0.20;;;;;;;;;;5083263;28;20945;-80
2024/01/24 14:15:21;;;;;;;0.13;0.13;;;;;;;;;;5078706;28;20049;-80
2024/01/24 14:18:00;;;;;;;0.10;0.10;;;;;;;;;;5086683;28;20033;-80
2024/01/24 14:20:30;;;;;;;0.13;0.13;;;;;;;;;;5097163;28;20062;-81
2024/01/24 14:22:57;;;;;;;0.10;0.10;;;;;;;;;;5088073;28;20160;-80
2024/01/24 14:25:23;;;;;;;0.68;0.68;;;;;;;;;;5078541;28;20123;-80
2024/01/24 14:27:50;;;;;;;0.35;0.35;;;;;;;;;;5089289;28;20106;-80
2024/01/24 14:30:17;;;;;;;0.10;0.10;;;;;;;;;;5081337;28;20072;-80
2024/01/24 14:32:43;;;;;;;0.10;0.10;;;;;;;;;;5088524;28;20059;-80
2024/01/24 14:35:13;;;;;;;0.10;0.10;;;;;;;;;;5092929;28;20098;-79
2024/01/24 14:37:40;;;;;;;0.10;0.10;;;;;;;;;;5089104;28;20033;-80
2024/01/24 14:40:06;;;;;;;0.15;0.15;;;;;;;;;;5092454;28;20080;-79
2024/01/24 14:42:35;;;;;;;0.10;0.10;;;;;;;;;;5083276;28;20064;-81
2024/01/24 14:45:01;;;;;;;0.10;0.10;;;;;;;;;;5090543;28;20045;-80